sensor_id;sensor_type;location;lat;lon;timestamp;temperature;humidity
22827;DHT22;11580;52.562;13.418;2023-04-24T00:02:01;15.40;34.50
22827;DHT22;11580;52.562;13.418;2023-04-24T00:04:29;15.40;34.60
22827;DHT22;11580;52.562;13.418;2023-04-24T00:06:57;15.40;34.60
22827;DHT22;11580;52.562;13.418;2023-04-24T00:09:25;15.40;34.80
22827;DHT22;11580;52.562;13.418;2023-04-24T00:11:53;15.30;34.80
22827;DHT22;11580;52.562;13.418;2023-04-24T00:14:21;15.40;34.90
22827;DHT22;11580;52.562;13.418;2023-04-24T00:16:49;15.30;35.10
22827;DHT22;11580;52.562;13.418;2023-04-24T00:19:16;15.30;35.70
22827;DHT22;11580;52.562;13.418;2023-04-24T00:21:46;15.30;35.70
22827;DHT22;11580;52.562;13.418;2023-04-24T00:24:15;15.30;35.80
22827;DHT22;11580;52.562;13.418;2023-04-24T00:26:42;15.30;35.10
22827;DHT22;11580;52.562;13.418;2023-04-24T00:29:09;15.30;35.90
22827;DHT22;11580;52.562;13.418;2023-04-24T00:31:38;15.20;35.20
22827;DHT22;11580;52.562;13.418;2023-04-24T00:34:06;15.30;35.50
22827;DHT22;11580;52.562;13.418;2023-04-24T00:36:33;15.20;35.30
22827;DHT22;11580;52.562;13.418;2023-04-24T00:39:00;15.30;35.50
22827;DHT22;11580;52.562;13.418;2023-04-24T00:41:28;15.20;35.50
22827;DHT22;11580;52.562;13.418;2023-04-24T00:43:55;15.20;35.60
22827;DHT22;11580;52.562;13.418;2023-04-24T00:46:22;15.20;36.40
22827;DHT22;11580;52.562;13.418;2023-04-24T00:48:51;15.20;35.70
22827;DHT22;11580;52.562;13.418;2023-04-24T00:51:18;15.20;36.00
22827;DHT22;11580;52.562;13.418;2023-04-24T00:53:46;15.20;35.90
22827;DHT22;11580;52.562;13.418;2023-04-24T00:56:14;15.20;36.00
22827;DHT22;11580;52.562;13.418;2023-04-24T00:58:42;15.20;36.00
22827;DHT22;11580;52.562;13.418;2023-04-24T01:01:10;15.10;36.00
22827;DHT22;11580;52.562;13.418;2023-04-24T01:03:37;15.10;36.10
22827;DHT22;11580;52.562;13.418;2023-04-24T01:06:07;15.10;36.10
22827;DHT22;11580;52.562;13.418;2023-04-24T01:08:36;15.10;36.40
22827;DHT22;11580;52.562;13.418;2023-04-24T01:11:04;15.10;36.30
22827;DHT22;11580;52.562;13.418;2023-04-24T01:13:37;15.10;36.30
22827;DHT22;11580;52.562;13.418;2023-04-24T01:16:05;15.10;37.30
22827;DHT22;11580;52.562;13.418;2023-04-24T01:18:33;15.10;36.50
22827;DHT22;11580;52.562;13.418;2023-04-24T01:21:03;15.20;37.40
22827;DHT22;11580;52.562;13.418;2023-04-24T01:23:34;15.10;37.80
22827;DHT22;11580;52.562;13.418;2023-04-24T01:26:02;15.20;37.10
22827;DHT22;11580;52.562;13.418;2023-04-24T01:28:29;15.20;37.00
22827;DHT22;11580;52.562;13.418;2023-04-24T01:30:57;15.20;37.00
22827;DHT22;11580;52.562;13.418;2023-04-24T01:33:25;15.30;37.80
22827;DHT22;11580;52.562;13.418;2023-04-24T01:35:52;15.30;37.10
22827;DHT22;11580;52.562;13.418;2023-04-24T01:38:20;15.30;37.80
22827;DHT22;11580;52.562;13.418;2023-04-24T01:40:49;15.30;37.10
22827;DHT22;11580;52.562;13.418;2023-04-24T01:43:17;15.40;37.40
22827;DHT22;11580;52.562;13.418;2023-04-24T01:45:45;15.40;38.00
22827;DHT22;11580;52.562;13.418;2023-04-24T01:48:13;15.70;37.60
22827;DHT22;11580;52.562;13.418;2023-04-24T01:50:40;15.50;37.40
22827;DHT22;11580;52.562;13.418;2023-04-24T01:53:11;15.60;37.40
22827;DHT22;11580;52.562;13.418;2023-04-24T01:55:38;15.60;37.40
22827;DHT22;11580;52.562;13.418;2023-04-24T01:58:07;15.70;37.40
22827;DHT22;11580;52.562;13.418;2023-04-24T02:00:35;15.70;37.50
22827;DHT22;11580;52.562;13.418;2023-04-24T02:03:02;15.80;37.40
22827;DHT22;11580;52.562;13.418;2023-04-24T02:05:29;15.80;37.30
22827;DHT22;11580;52.562;13.418;2023-04-24T02:07:56;15.90;37.90
22827;DHT22;11580;52.562;13.418;2023-04-24T02:10:24;15.90;37.10
22827;DHT22;11580;52.562;13.418;2023-04-24T02:12:52;15.90;37.00
22827;DHT22;11580;52.562;13.418;2023-04-24T02:15:24;16.00;37.00
22827;DHT22;11580;52.562;13.418;2023-04-24T02:17:52;16.00;37.00
22827;DHT22;11580;52.562;13.418;2023-04-24T02:20:19;16.00;37.50
22827;DHT22;11580;52.562;13.418;2023-04-24T02:22:46;16.00;36.80
22827;DHT22;11580;52.562;13.418;2023-04-24T02:25:13;16.10;36.90
22827;DHT22;11580;52.562;13.418;2023-04-24T02:27:40;16.00;36.80
22827;DHT22;11580;52.562;13.418;2023-04-24T02:30:08;16.00;36.80
22827;DHT22;11580;52.562;13.418;2023-04-24T02:32:37;16.00;36.90
22827;DHT22;11580;52.562;13.418;2023-04-24T02:35:05;16.00;37.00
22827;DHT22;11580;52.562;13.418;2023-04-24T02:37:33;15.90;36.90
22827;DHT22;11580;52.562;13.418;2023-04-24T02:40:00;15.90;37.60
22827;DHT22;11580;52.562;13.418;2023-04-24T02:42:28;15.90;37.60
22827;DHT22;11580;52.562;13.418;2023-04-24T02:44:56;15.90;37.00
22827;DHT22;11580;52.562;13.418;2023-04-24T02:47:24;16.00;37.10
22827;DHT22;11580;52.562;13.418;2023-04-24T02:49:52;15.90;37.80
22827;DHT22;11580;52.562;13.418;2023-04-24T02:52:19;15.90;37.30
22827;DHT22;11580;52.562;13.418;2023-04-24T02:54:47;15.90;37.20
22827;DHT22;11580;52.562;13.418;2023-04-24T02:57:14;15.90;38.00
22827;DHT22;11580;52.562;13.418;2023-04-24T02:59:42;15.90;37.40
22827;DHT22;11580;52.562;13.418;2023-04-24T03:02:09;15.90;38.10
22827;DHT22;11580;52.562;13.418;2023-04-24T03:04:36;15.90;38.10
22827;DHT22;11580;52.562;13.418;2023-04-24T03:07:05;15.90;37.80
22827;DHT22;11580;52.562;13.418;2023-04-24T03:09:32;16.00;37.60
22827;DHT22;11580;52.562;13.418;2023-04-24T03:11:59;16.00;37.50
22827;DHT22;11580;52.562;13.418;2023-04-24T03:14:26;16.00;37.50
22827;DHT22;11580;52.562;13.418;2023-04-24T03:16:56;16.00;37.40
22827;DHT22;11580;52.562;13.418;2023-04-24T03:19:24;16.10;37.50
22827;DHT22;11580;52.562;13.418;2023-04-24T03:22:01;16.10;37.50
22827;DHT22;11580;52.562;13.418;2023-04-24T03:24:31;16.10;37.60
22827;DHT22;11580;52.562;13.418;2023-04-24T03:26:59;16.20;37.70
22827;DHT22;11580;52.562;13.418;2023-04-24T03:29:44;16.20;37.60
22827;DHT22;11580;52.562;13.418;2023-04-24T03:32:13;16.20;37.60
22827;DHT22;11580;52.562;13.418;2023-04-24T03:34:40;16.30;37.70
22827;DHT22;11580;52.562;13.418;2023-04-24T03:37:10;16.30;37.60
22827;DHT22;11580;52.562;13.418;2023-04-24T03:39:44;16.30;37.60
22827;DHT22;11580;52.562;13.418;2023-04-24T03:42:13;16.40;37.70
22827;DHT22;11580;52.562;13.418;2023-04-24T03:44:49;16.40;37.50
22827;DHT22;11580;52.562;13.418;2023-04-24T03:47:18;16.40;38.20
22827;DHT22;11580;52.562;13.418;2023-04-24T03:49:47;16.50;38.20
22827;DHT22;11580;52.562;13.418;2023-04-24T03:52:14;16.50;38.10
22827;DHT22;11580;52.562;13.418;2023-04-24T03:54:43;16.60;37.40
22827;DHT22;11580;52.562;13.418;2023-04-24T03:57:11;16.60;37.40
22827;DHT22;11580;52.562;13.418;2023-04-24T03:59:46;16.60;37.40
22827;DHT22;11580;52.562;13.418;2023-04-24T04:02:17;16.70;38.00
22827;DHT22;11580;52.562;13.418;2023-04-24T04:04:44;16.70;37.20
22827;DHT22;11580;52.562;13.418;2023-04-24T04:07:12;16.70;37.10
22827;DHT22;11580;52.562;13.418;2023-04-24T04:09:39;16.70;37.10
22827;DHT22;11580;52.562;13.418;2023-04-24T04:12:08;16.80;37.20
22827;DHT22;11580;52.562;13.418;2023-04-24T04:14:36;16.80;37.20
22827;DHT22;11580;52.562;13.418;2023-04-24T04:17:03;16.80;37.00
22827;DHT22;11580;52.562;13.418;2023-04-24T04:19:31;16.80;37.00
22827;DHT22;11580;52.562;13.418;2023-04-24T04:21:58;16.80;36.90
22827;DHT22;11580;52.562;13.418;2023-04-24T04:24:34;16.90;37.00
22827;DHT22;11580;52.562;13.418;2023-04-24T04:27:04;16.90;36.90
22827;DHT22;11580;52.562;13.418;2023-04-24T04:29:39;16.90;36.80
22827;DHT22;11580;52.562;13.418;2023-04-24T04:32:09;16.90;36.80
22827;DHT22;11580;52.562;13.418;2023-04-24T04:34:37;16.90;36.80
22827;DHT22;11580;52.562;13.418;2023-04-24T04:37:07;16.90;36.80
22827;DHT22;11580;52.562;13.418;2023-04-24T04:39:50;16.90;36.80
22827;DHT22;11580;52.562;13.418;2023-04-24T04:42:22;16.90;36.70
22827;DHT22;11580;52.562;13.418;2023-04-24T04:44:51;16.90;37.30
22827;DHT22;11580;52.562;13.418;2023-04-24T04:47:24;17.00;37.50
22827;DHT22;11580;52.562;13.418;2023-04-24T04:49:54;17.00;37.40
22827;DHT22;11580;52.562;13.418;2023-04-24T04:52:25;17.00;36.60
22827;DHT22;11580;52.562;13.418;2023-04-24T04:55:05;17.00;36.70
22827;DHT22;11580;52.562;13.418;2023-04-24T04:57:56;17.00;36.70
22827;DHT22;11580;52.562;13.418;2023-04-24T05:00:24;17.00;36.80
22827;DHT22;11580;52.562;13.418;2023-04-24T05:02:53;17.00;36.80
22827;DHT22;11580;52.562;13.418;2023-04-24T05:05:20;17.10;36.90
22827;DHT22;11580;52.562;13.418;2023-04-24T05:07:48;17.10;36.80
22827;DHT22;11580;52.562;13.418;2023-04-24T05:10:15;17.10;36.80
22827;DHT22;11580;52.562;13.418;2023-04-24T05:12:43;17.20;37.40
22827;DHT22;11580;52.562;13.418;2023-04-24T05:15:11;17.20;37.30
22827;DHT22;11580;52.562;13.418;2023-04-24T05:17:40;17.30;36.70
22827;DHT22;11580;52.562;13.418;2023-04-24T05:20:08;17.30;36.60
22827;DHT22;11580;52.562;13.418;2023-04-24T05:22:35;17.30;36.50
22827;DHT22;11580;52.562;13.418;2023-04-24T05:25:03;17.40;36.50
22827;DHT22;11580;52.562;13.418;2023-04-24T05:27:54;17.50;36.50
22827;DHT22;11580;52.562;13.418;2023-04-24T05:30:22;17.50;36.40
22827;DHT22;11580;52.562;13.418;2023-04-24T05:32:51;17.60;36.40
22827;DHT22;11580;52.562;13.418;2023-04-24T05:35:18;17.60;36.20
22827;DHT22;11580;52.562;13.418;2023-04-24T05:37:46;17.70;36.30
22827;DHT22;11580;52.562;13.418;2023-04-24T05:40:14;17.80;36.30
22827;DHT22;11580;52.562;13.418;2023-04-24T05:42:41;17.80;36.20
22827;DHT22;11580;52.562;13.418;2023-04-24T05:45:09;17.90;36.00
22827;DHT22;11580;52.562;13.418;2023-04-24T05:47:41;18.00;35.90
22827;DHT22;11580;52.562;13.418;2023-04-24T05:50:12;18.10;35.70
22827;DHT22;11580;52.562;13.418;2023-04-24T05:52:39;18.10;35.00
22827;DHT22;11580;52.562;13.418;2023-04-24T05:55:19;18.20;35.10
22827;DHT22;11580;52.562;13.418;2023-04-24T05:57:46;18.20;35.00
22827;DHT22;11580;52.562;13.418;2023-04-24T06:00:14;18.30;35.10
22827;DHT22;11580;52.562;13.418;2023-04-24T06:02:50;18.30;35.20
22827;DHT22;11580;52.562;13.418;2023-04-24T06:05:19;18.30;34.90
22827;DHT22;11580;52.562;13.418;2023-04-24T06:07:47;18.40;34.60
22827;DHT22;11580;52.562;13.418;2023-04-24T06:10:15;18.30;34.50
22827;DHT22;11580;52.562;13.418;2023-04-24T06:12:44;18.40;34.90
22827;DHT22;11580;52.562;13.418;2023-04-24T06:15:15;18.40;34.60
22827;DHT22;11580;52.562;13.418;2023-04-24T06:18:09;18.40;35.30
22827;DHT22;11580;52.562;13.418;2023-04-24T06:20:39;18.40;34.70
22827;DHT22;11580;52.562;13.418;2023-04-24T06:23:08;18.50;35.10
22827;DHT22;11580;52.562;13.418;2023-04-24T06:25:36;18.50;34.50
22827;DHT22;11580;52.562;13.418;2023-04-24T06:28:03;18.60;35.00
22827;DHT22;11580;52.562;13.418;2023-04-24T06:30:30;18.60;34.10
22827;DHT22;11580;52.562;13.418;2023-04-24T06:32:58;18.60;34.00
22827;DHT22;11580;52.562;13.418;2023-04-24T06:35:25;18.70;34.10
22827;DHT22;11580;52.562;13.418;2023-04-24T06:37:53;18.70;34.00
22827;DHT22;11580;52.562;13.418;2023-04-24T06:40:21;18.80;33.80
22827;DHT22;11580;52.562;13.418;2023-04-24T06:42:49;18.80;34.00
22827;DHT22;11580;52.562;13.418;2023-04-24T06:45:16;18.90;33.90
22827;DHT22;11580;52.562;13.418;2023-04-24T06:47:43;19.00;33.90
22827;DHT22;11580;52.562;13.418;2023-04-24T06:50:10;19.00;34.60
22827;DHT22;11580;52.562;13.418;2023-04-24T06:52:38;19.10;33.70
22827;DHT22;11580;52.562;13.418;2023-04-24T06:55:08;19.20;33.40
22827;DHT22;11580;52.562;13.418;2023-04-24T06:57:36;19.40;32.80
22827;DHT22;11580;52.562;13.418;2023-04-24T07:00:04;19.50;33.40
22827;DHT22;11580;52.562;13.418;2023-04-24T07:02:34;19.60;33.10
22827;DHT22;11580;52.562;13.418;2023-04-24T07:05:03;19.70;32.90
22827;DHT22;11580;52.562;13.418;2023-04-24T07:07:31;19.80;32.60
22827;DHT22;11580;52.562;13.418;2023-04-24T07:09:58;20.00;33.40
22827;DHT22;11580;52.562;13.418;2023-04-24T07:12:26;20.10;32.50
22827;DHT22;11580;52.562;13.418;2023-04-24T07:14:53;20.20;31.80
22827;DHT22;11580;52.562;13.418;2023-04-24T07:17:21;20.40;32.00
22827;DHT22;11580;52.562;13.418;2023-04-24T07:19:48;20.50;31.40
22827;DHT22;11580;52.562;13.418;2023-04-24T07:22:15;20.60;31.10
22827;DHT22;11580;52.562;13.418;2023-04-24T07:24:43;20.60;30.80
22827;DHT22;11580;52.562;13.418;2023-04-24T07:27:10;20.70;30.50
22827;DHT22;11580;52.562;13.418;2023-04-24T07:29:41;20.70;30.30
22827;DHT22;11580;52.562;13.418;2023-04-24T07:32:09;20.80;29.90
22827;DHT22;11580;52.562;13.418;2023-04-24T07:34:36;20.80;29.60
22827;DHT22;11580;52.562;13.418;2023-04-24T07:37:03;20.80;29.20
22827;DHT22;11580;52.562;13.418;2023-04-24T07:39:31;20.80;29.20
22827;DHT22;11580;52.562;13.418;2023-04-24T07:41:58;20.80;29.20
22827;DHT22;11580;52.562;13.418;2023-04-24T07:44:27;20.80;29.20
22827;DHT22;11580;52.562;13.418;2023-04-24T07:46:56;20.90;29.10
22827;DHT22;11580;52.562;13.418;2023-04-24T07:49:23;20.90;29.00
22827;DHT22;11580;52.562;13.418;2023-04-24T07:51:50;21.00;28.70
22827;DHT22;11580;52.562;13.418;2023-04-24T07:54:19;21.10;28.50
22827;DHT22;11580;52.562;13.418;2023-04-24T07:56:46;21.10;28.20
22827;DHT22;11580;52.562;13.418;2023-04-24T07:59:14;21.10;28.50
22827;DHT22;11580;52.562;13.418;2023-04-24T08:01:41;21.10;27.70
22827;DHT22;11580;52.562;13.418;2023-04-24T08:04:10;21.10;27.60
22827;DHT22;11580;52.562;13.418;2023-04-24T08:06:37;21.10;27.60
22827;DHT22;11580;52.562;13.418;2023-04-24T08:09:04;21.10;27.10
22827;DHT22;11580;52.562;13.418;2023-04-24T08:11:31;21.10;27.20
22827;DHT22;11580;52.562;13.418;2023-04-24T08:13:59;21.20;27.40
22827;DHT22;11580;52.562;13.418;2023-04-24T08:16:26;21.20;27.40
22827;DHT22;11580;52.562;13.418;2023-04-24T08:18:54;21.30;27.40
22827;DHT22;11580;52.562;13.418;2023-04-24T08:21:22;21.40;27.10
22827;DHT22;11580;52.562;13.418;2023-04-24T08:23:51;21.40;26.30
22827;DHT22;11580;52.562;13.418;2023-04-24T08:26:19;21.50;27.30
22827;DHT22;11580;52.562;13.418;2023-04-24T08:28:46;21.60;26.70
22827;DHT22;11580;52.562;13.418;2023-04-24T08:31:13;21.70;26.90
22827;DHT22;11580;52.562;13.418;2023-04-24T08:33:40;21.80;27.00
22827;DHT22;11580;52.562;13.418;2023-04-24T08:36:10;21.90;27.00
22827;DHT22;11580;52.562;13.418;2023-04-24T08:38:39;22.00;27.30
22827;DHT22;11580;52.562;13.418;2023-04-24T08:41:07;22.20;26.80
22827;DHT22;11580;52.562;13.418;2023-04-24T08:43:34;22.30;26.90
22827;DHT22;11580;52.562;13.418;2023-04-24T08:46:04;22.50;27.00
22827;DHT22;11580;52.562;13.418;2023-04-24T08:48:31;22.70;26.50
22827;DHT22;11580;52.562;13.418;2023-04-24T08:50:59;22.90;26.80
22827;DHT22;11580;52.562;13.418;2023-04-24T08:53:27;23.10;26.40
22827;DHT22;11580;52.562;13.418;2023-04-24T08:55:56;23.30;26.20
22827;DHT22;11580;52.562;13.418;2023-04-24T08:58:25;23.50;25.90
22827;DHT22;11580;52.562;13.418;2023-04-24T09:00:54;23.70;25.70
22827;DHT22;11580;52.562;13.418;2023-04-24T09:03:22;23.90;25.70
22827;DHT22;11580;52.562;13.418;2023-04-24T09:05:50;24.10;25.60
22827;DHT22;11580;52.562;13.418;2023-04-24T09:08:20;24.30;25.20
22827;DHT22;11580;52.562;13.418;2023-04-24T09:10:52;24.40;24.70
22827;DHT22;11580;52.562;13.418;2023-04-24T09:13:21;24.60;24.50
22827;DHT22;11580;52.562;13.418;2023-04-24T09:15:48;24.70;23.90
22827;DHT22;11580;52.562;13.418;2023-04-24T09:18:16;24.80;24.20
22827;DHT22;11580;52.562;13.418;2023-04-24T09:21:01;24.80;24.10
22827;DHT22;11580;52.562;13.418;2023-04-24T09:23:29;24.90;23.00
22827;DHT22;11580;52.562;13.418;2023-04-24T09:25:59;25.00;23.80
22827;DHT22;11580;52.562;13.418;2023-04-24T09:28:32;25.10;23.50
22827;DHT22;11580;52.562;13.418;2023-04-24T09:31:04;25.20;22.40
22827;DHT22;11580;52.562;13.418;2023-04-24T09:33:32;25.30;23.90
22827;DHT22;11580;52.562;13.418;2023-04-24T09:36:00;25.40;23.30
22827;DHT22;11580;52.562;13.418;2023-04-24T09:38:32;25.40;23.10
22827;DHT22;11580;52.562;13.418;2023-04-24T09:41:01;25.40;22.30
22827;DHT22;11580;52.562;13.418;2023-04-24T09:43:30;25.40;23.00
22827;DHT22;11580;52.562;13.418;2023-04-24T09:45:59;25.40;22.80
22827;DHT22;11580;52.562;13.418;2023-04-24T09:48:32;25.40;23.00
22827;DHT22;11580;52.562;13.418;2023-04-24T09:51:00;25.40;23.10
22827;DHT22;11580;52.562;13.418;2023-04-24T09:53:29;25.30;23.70
22827;DHT22;11580;52.562;13.418;2023-04-24T09:56:05;25.30;23.30
22827;DHT22;11580;52.562;13.418;2023-04-24T09:58:35;25.30;22.90
22827;DHT22;11580;52.562;13.418;2023-04-24T10:01:03;25.20;23.30
22827;DHT22;11580;52.562;13.418;2023-04-24T10:03:31;25.20;23.70
22827;DHT22;11580;52.562;13.418;2023-04-24T10:06:00;25.20;23.80
22827;DHT22;11580;52.562;13.418;2023-04-24T10:08:33;25.20;24.50
22827;DHT22;11580;52.562;13.418;2023-04-24T10:11:01;25.30;23.20
22827;DHT22;11580;52.562;13.418;2023-04-24T10:13:28;25.40;23.80
22827;DHT22;11580;52.562;13.418;2023-04-24T10:15:59;25.50;23.90
22827;DHT22;11580;52.562;13.418;2023-04-24T10:18:27;25.60;23.10
22827;DHT22;11580;52.562;13.418;2023-04-24T10:20:56;25.80;23.60
22827;DHT22;11580;52.562;13.418;2023-04-24T10:23:25;25.90;23.30
22827;DHT22;11580;52.562;13.418;2023-04-24T10:25:52;26.00;23.20
22827;DHT22;11580;52.562;13.418;2023-04-24T10:28:21;26.10;23.40
22827;DHT22;11580;52.562;13.418;2023-04-24T10:30:51;26.20;23.20
22827;DHT22;11580;52.562;13.418;2023-04-24T10:33:23;26.40;23.60
22827;DHT22;11580;52.562;13.418;2023-04-24T10:35:51;26.50;22.50
22827;DHT22;11580;52.562;13.418;2023-04-24T10:38:24;26.60;22.70
22827;DHT22;11580;52.562;13.418;2023-04-24T10:40:57;26.60;22.00
22827;DHT22;11580;52.562;13.418;2023-04-24T10:43:33;26.70;21.80
22827;DHT22;11580;52.562;13.418;2023-04-24T10:46:04;26.70;22.20
22827;DHT22;11580;52.562;13.418;2023-04-24T10:48:35;26.70;22.10
22827;DHT22;11580;52.562;13.418;2023-04-24T10:51:11;26.50;21.70
22827;DHT22;11580;52.562;13.418;2023-04-24T10:53:39;26.50;21.50
22827;DHT22;11580;52.562;13.418;2023-04-24T10:56:08;26.30;21.70
22827;DHT22;11580;52.562;13.418;2023-04-24T10:58:38;26.20;21.60
22827;DHT22;11580;52.562;13.418;2023-04-24T11:01:06;26.00;21.70
22827;DHT22;11580;52.562;13.418;2023-04-24T11:03:35;25.90;22.60
22827;DHT22;11580;52.562;13.418;2023-04-24T11:06:04;25.80;22.40
22827;DHT22;11580;52.562;13.418;2023-04-24T11:08:37;25.80;22.00
22827;DHT22;11580;52.562;13.418;2023-04-24T11:11:10;25.70;21.60
22827;DHT22;11580;52.562;13.418;2023-04-24T11:14:04;25.60;21.80
22827;DHT22;11580;52.562;13.418;2023-04-24T11:16:35;25.70;21.70
22827;DHT22;11580;52.562;13.418;2023-04-24T11:19:09;25.70;22.30
22827;DHT22;11580;52.562;13.418;2023-04-24T11:21:41;25.80;22.60
22827;DHT22;11580;52.562;13.418;2023-04-24T11:24:28;25.90;22.50
22827;DHT22;11580;52.562;13.418;2023-04-24T11:26:58;26.00;21.90
22827;DHT22;11580;52.562;13.418;2023-04-24T11:29:45;26.20;22.40
22827;DHT22;11580;52.562;13.418;2023-04-24T11:32:25;26.30;21.50
22827;DHT22;11580;52.562;13.418;2023-04-24T11:34:57;26.40;21.00
22827;DHT22;11580;52.562;13.418;2023-04-24T11:37:26;26.50;21.10
22827;DHT22;11580;52.562;13.418;2023-04-24T11:39:56;26.50;21.70
22827;DHT22;11580;52.562;13.418;2023-04-24T11:42:25;26.50;21.70
22827;DHT22;11580;52.562;13.418;2023-04-24T11:44:53;26.50;21.30
22827;DHT22;11580;52.562;13.418;2023-04-24T11:47:28;26.40;21.20
22827;DHT22;11580;52.562;13.418;2023-04-24T11:49:58;26.30;20.30
22827;DHT22;11580;52.562;13.418;2023-04-24T11:52:25;26.10;21.10
22827;DHT22;11580;52.562;13.418;2023-04-24T11:54:53;25.90;21.50
22827;DHT22;11580;52.562;13.418;2023-04-24T11:57:20;25.60;21.80
22827;DHT22;11580;52.562;13.418;2023-04-24T11:59:48;25.40;21.80
22827;DHT22;11580;52.562;13.418;2023-04-24T12:02:23;25.10;22.00
22827;DHT22;11580;52.562;13.418;2023-04-24T12:04:52;24.90;21.80
22827;DHT22;11580;52.562;13.418;2023-04-24T12:07:22;24.70;22.40
22827;DHT22;11580;52.562;13.418;2023-04-24T12:09:55;24.60;22.60
22827;DHT22;11580;52.562;13.418;2023-04-24T12:12:25;24.60;22.70
22827;DHT22;11580;52.562;13.418;2023-04-24T12:14:54;24.50;23.60
22827;DHT22;11580;52.562;13.418;2023-04-24T12:17:27;24.40;23.00
22827;DHT22;11580;52.562;13.418;2023-04-24T12:20:00;24.40;23.00
22827;DHT22;11580;52.562;13.418;2023-04-24T12:22:43;24.30;22.90
22827;DHT22;11580;52.562;13.418;2023-04-24T12:25:12;24.00;22.70
22827;DHT22;11580;52.562;13.418;2023-04-24T12:27:40;24.20;23.90
22827;DHT22;11580;52.562;13.418;2023-04-24T12:30:11;24.10;23.60
22827;DHT22;11580;52.562;13.418;2023-04-24T12:32:44;24.00;23.30
22827;DHT22;11580;52.562;13.418;2023-04-24T12:35:13;24.00;23.30
22827;DHT22;11580;52.562;13.418;2023-04-24T12:37:43;24.00;23.50
22827;DHT22;11580;52.562;13.418;2023-04-24T12:40:12;23.90;23.40
22827;DHT22;11580;52.562;13.418;2023-04-24T12:42:43;23.90;23.50
22827;DHT22;11580;52.562;13.418;2023-04-24T12:45:11;23.90;23.50
22827;DHT22;11580;52.562;13.418;2023-04-24T12:47:40;23.90;23.80
22827;DHT22;11580;52.562;13.418;2023-04-24T12:50:10;23.90;23.40
22827;DHT22;11580;52.562;13.418;2023-04-24T12:52:39;24.00;23.00
22827;DHT22;11580;52.562;13.418;2023-04-24T12:55:09;24.10;22.40
22827;DHT22;11580;52.562;13.418;2023-04-24T12:57:38;24.20;21.40
22827;DHT22;11580;52.562;13.418;2023-04-24T13:00:08;24.30;21.20
22827;DHT22;11580;52.562;13.418;2023-04-24T13:02:35;24.30;20.20
22827;DHT22;11580;52.562;13.418;2023-04-24T13:05:03;24.40;20.70
22827;DHT22;11580;52.562;13.418;2023-04-24T13:07:31;24.50;20.50
22827;DHT22;11580;52.562;13.418;2023-04-24T13:09:58;24.50;20.50
22827;DHT22;11580;52.562;13.418;2023-04-24T13:12:26;24.50;20.70
22827;DHT22;11580;52.562;13.418;2023-04-24T13:14:54;24.50;21.20
22827;DHT22;11580;52.562;13.418;2023-04-24T13:17:21;24.60;20.80
22827;DHT22;11580;52.562;13.418;2023-04-24T13:19:50;24.60;20.50
22827;DHT22;11580;52.562;13.418;2023-04-24T13:22:18;24.70;20.60
22827;DHT22;11580;52.562;13.418;2023-04-24T13:24:45;24.70;20.30
22827;DHT22;11580;52.562;13.418;2023-04-24T13:27:15;24.70;20.50
22827;DHT22;11580;52.562;13.418;2023-04-24T13:29:44;24.70;20.50
22827;DHT22;11580;52.562;13.418;2023-04-24T13:32:12;24.70;20.30
22827;DHT22;11580;52.562;13.418;2023-04-24T13:34:40;24.70;20.60
22827;DHT22;11580;52.562;13.418;2023-04-24T13:37:07;24.70;20.20
22827;DHT22;11580;52.562;13.418;2023-04-24T13:39:34;24.80;19.90
22827;DHT22;11580;52.562;13.418;2023-04-24T13:42:02;24.80;20.60
22827;DHT22;11580;52.562;13.418;2023-04-24T13:44:29;24.80;20.80
22827;DHT22;11580;52.562;13.418;2023-04-24T13:46:58;24.80;20.50
22827;DHT22;11580;52.562;13.418;2023-04-24T13:49:26;24.80;20.10
22827;DHT22;11580;52.562;13.418;2023-04-24T13:51:54;24.80;20.70
22827;DHT22;11580;52.562;13.418;2023-04-24T13:54:22;24.70;20.20
22827;DHT22;11580;52.562;13.418;2023-04-24T13:56:51;24.60;20.20
22827;DHT22;11580;52.562;13.418;2023-04-24T13:59:19;24.60;20.50
22827;DHT22;11580;52.562;13.418;2023-04-24T14:01:47;24.50;19.50
22827;DHT22;11580;52.562;13.418;2023-04-24T14:04:15;24.50;19.50
22827;DHT22;11580;52.562;13.418;2023-04-24T14:06:43;24.50;19.20
22827;DHT22;11580;52.562;13.418;2023-04-24T14:09:10;24.40;19.40
22827;DHT22;11580;52.562;13.418;2023-04-24T14:11:38;24.40;19.40
22827;DHT22;11580;52.562;13.418;2023-04-24T14:14:06;24.40;18.90
22827;DHT22;11580;52.562;13.418;2023-04-24T14:16:33;24.40;19.40
22827;DHT22;11580;52.562;13.418;2023-04-24T14:19:00;24.40;18.60
22827;DHT22;11580;52.562;13.418;2023-04-24T14:21:29;24.30;18.30
22827;DHT22;11580;52.562;13.418;2023-04-24T14:23:56;24.30;18.40
22827;DHT22;11580;52.562;13.418;2023-04-24T14:26:23;24.20;18.70
22827;DHT22;11580;52.562;13.418;2023-04-24T14:28:51;24.20;17.90
22827;DHT22;11580;52.562;13.418;2023-04-24T14:31:20;24.20;17.90
22827;DHT22;11580;52.562;13.418;2023-04-24T14:33:47;24.20;17.90
22827;DHT22;11580;52.562;13.418;2023-04-24T14:36:14;24.20;17.40
22827;DHT22;11580;52.562;13.418;2023-04-24T14:38:43;24.20;17.30
22827;DHT22;11580;52.562;13.418;2023-04-24T14:41:10;24.20;17.00
22827;DHT22;11580;52.562;13.418;2023-04-24T14:43:38;24.10;17.20
22827;DHT22;11580;52.562;13.418;2023-04-24T14:46:05;24.10;17.10
22827;DHT22;11580;52.562;13.418;2023-04-24T14:48:33;24.10;16.90
22827;DHT22;11580;52.562;13.418;2023-04-24T14:51:00;24.10;16.90
22827;DHT22;11580;52.562;13.418;2023-04-24T14:53:27;24.10;16.80
22827;DHT22;11580;52.562;13.418;2023-04-24T14:55:56;24.00;16.80
22827;DHT22;11580;52.562;13.418;2023-04-24T14:58:23;24.00;16.50
22827;DHT22;11580;52.562;13.418;2023-04-24T15:00:51;23.90;16.60
22827;DHT22;11580;52.562;13.418;2023-04-24T15:03:20;23.90;16.50
22827;DHT22;11580;52.562;13.418;2023-04-24T15:05:47;23.80;16.80
22827;DHT22;11580;52.562;13.418;2023-04-24T15:08:14;23.80;16.40
22827;DHT22;11580;52.562;13.418;2023-04-24T15:10:42;23.70;16.40
22827;DHT22;11580;52.562;13.418;2023-04-24T15:13:12;23.70;16.50
22827;DHT22;11580;52.562;13.418;2023-04-24T15:15:39;23.70;16.50
22827;DHT22;11580;52.562;13.418;2023-04-24T15:18:07;23.70;16.80
22827;DHT22;11580;52.562;13.418;2023-04-24T15:20:37;23.60;16.60
22827;DHT22;11580;52.562;13.418;2023-04-24T15:23:08;23.60;16.60
22827;DHT22;11580;52.562;13.418;2023-04-24T15:25:36;23.60;16.40
22827;DHT22;11580;52.562;13.418;2023-04-24T15:28:03;23.50;16.30